Map

Track Data

SID SEASON NUMBER BASIN SUBBASIN NAME ISO_TIME NATURE LAT LON WMO_WIND WMO_PRES WMO_AGENCY TRACK_TYPE DIST2LAND LANDFALL IFLAG USA_AGENCY USA_ATCF_ID USA_LAT USA_LON USA_RECORD USA_STATUS USA_WIND USA_PRES USA_SSHS USA_R34_NE USA_R34_SE USA_R34_SW USA_R34_NW USA_R50_NE USA_R50_SE USA_R50_SW USA_R50_NW USA_R64_NE USA_R64_SE USA_R64_SW USA_R64_NW USA_POCI USA_ROCI USA_RMW USA_EYE TOKYO_LAT TOKYO_LON TOKYO_GRADE TOKYO_WIND TOKYO_PRES TOKYO_R50_DIR TOKYO_R50_LONG TOKYO_R50_SHORT TOKYO_R30_DIR TOKYO_R30_LONG TOKYO_R30_SHORT TOKYO_LAND CMA_LAT CMA_LON CMA_CAT CMA_WIND CMA_PRES HKO_LAT HKO_LON HKO_CAT HKO_WIND HKO_PRES NEWDELHI_LAT NEWDELHI_LON NEWDELHI_GRADE NEWDELHI_WIND NEWDELHI_PRES NEWDELHI_CI NEWDELHI_DP NEWDELHI_POCI REUNION_LAT REUNION_LON REUNION_TYPE REUNION_WIND REUNION_PRES REUNION_TNUM REUNION_CI REUNION_RMW REUNION_R34_NE REUNION_R34_SE REUNION_R34_SW REUNION_R34_NW REUNION_R50_NE REUNION_R50_SE REUNION_R50_SW REUNION_R50_NW REUNION_R64_NE REUNION_R64_SE REUNION_R64_SW REUNION_R64_NW BOM_LAT BOM_LON BOM_TYPE BOM_WIND BOM_PRES BOM_TNUM BOM_CI BOM_RMW BOM_R34_NE BOM_R34_SE BOM_R34_SW BOM_R34_NW BOM_R50_NE BOM_R50_SE BOM_R50_SW BOM_R50_NW BOM_R64_NE BOM_R64_SE BOM_R64_SW BOM_R64_NW BOM_ROCI BOM_POCI BOM_EYE BOM_POS_METHOD BOM_PRES_METHOD NADI_LAT NADI_LON NADI_CAT NADI_WIND NADI_PRES WELLINGTON_LAT WELLINGTON_LON WELLINGTON_WIND WELLINGTON_PRES DS824_LAT DS824_LON DS824_STAGE DS824_WIND DS824_PRES TD9636_LAT TD9636_LON TD9636_STAGE TD9636_WIND TD9636_PRES TD9635_LAT TD9635_LON TD9635_WIND TD9635_PRES TD9635_ROCI NEUMANN_LAT NEUMANN_LON NEUMANN_CLASS NEUMANN_WIND NEUMANN_PRES MLC_LAT MLC_LON MLC_CLASS MLC_WIND MLC_PRES USA_GUST BOM_GUST BOM_GUST_PER REUNION_GUST REUNION_GUST_PER USA_SEAHGT USA_SEARAD_NE USA_SEARAD_SE USA_SEARAD_SW USA_SEARAD_NW STORM_SPEED STORM_DIR
1944190N13114 1944 33 WP MM NOT_NAMED 1944-07-07 12:00:00 NR 12.6000 114.200 main 510 477 __________O___ -1 12.6000 114.200 4 8 310
1944190N13114 1944 33 WP MM NOT_NAMED 1944-07-07 15:00:00 NR 12.8407 113.905 main 477 445 __________P___ -1 12.8407 113.905 4 8 310
1944190N13114 1944 33 WP MM NOT_NAMED 1944-07-07 18:00:00 NR 13.0850 113.598 main 445 414 __________P___ -1 13.0850 113.598 4 8 309
1944190N13114 1944 33 WP MM NOT_NAMED 1944-07-07 21:00:00 NR 13.3368 113.267 main 414 376 __________P___ -1 13.3368 113.267 4 9 307
1944190N13114 1944 33 WP MM NOT_NAMED 1944-07-08 00:00:00 NR 13.6000 112.900 main 376 340 __________O___ -1 13.6000 112.900 4 9 306
1944190N13114 1944 33 WP MM NOT_NAMED 1944-07-08 03:00:00 NR 13.8777 112.492 main 343 303 __________P___ -1 13.8777 112.492 4 10 305
1944190N13114 1944 33 WP MM NOT_NAMED 1944-07-08 06:00:00 NR 14.1702 112.057 main 304 256 __________P___ -1 14.1702 112.057 4 10 305
1944190N13114 1944 33 WP MM NOT_NAMED 1944-07-08 09:00:00 NR 14.4777 111.620 main 256 226 __________P___ -1 14.4777 111.620 4 10 307
1944190N13114 1944 33 WP MM NOT_NAMED 1944-07-08 12:00:00 NR 14.8000 111.200 main 226 188 __________O___ -1 14.8000 111.200 4 10 310
1944190N13114 1944 33 WP MM NOT_NAMED 1944-07-08 15:00:00 NR 15.1395 110.816 main 188 169 __________P___ -1 15.1395 110.816 4 10 314
1944190N13114 1944 33 WP MM NOT_NAMED 1944-07-08 18:00:00 NR 15.4922 110.455 main 174 145 __________P___ -1 15.4922 110.455 4 10 316
1944190N13114 1944 33 WP MM NOT_NAMED 1944-07-08 21:00:00 NR 15.8489 110.116 main 145 139 __________P___ -1 15.8489 110.116 4 10 318
1944190N13114 1944 33 WP MM NOT_NAMED 1944-07-09 00:00:00 NR 16.2000 109.800 main 147 139 __________O___ -1 16.2000 109.800 4 9 319
1944190N13114 1944 33 WP MM NOT_NAMED 1944-07-09 03:00:00 NR 16.5279 109.495 main 139 131 __________P___ -1 16.5279 109.495 4 9 319
1944190N13114 1944 33 WP MM NOT_NAMED 1944-07-09 06:00:00 NR 16.8498 109.212 main 131 123 __________P___ -1 16.8498 109.212 4 8 321
1944190N13114 1944 33 WP MM NOT_NAMED 1944-07-09 09:00:00 NR 17.1717 108.948 main 128 105 __________P___ -1 17.1717 108.948 4 8 323
1944190N13114 1944 33 WP MM NOT_NAMED 1944-07-09 12:00:00 NR 17.5000 108.700 main 105 81 __________O___ -1 17.5000 108.700 4 8 325
1944190N13114 1944 33 WP MM NOT_NAMED 1944-07-09 15:00:00 NR 17.8392 108.465 main 81 53 __________P___ -1 17.8392 108.465 4 8 327
1944190N13114 1944 33 WP MM NOT_NAMED 1944-07-09 18:00:00 NR 18.1877 108.238 main 62 57 __________P___ -1 18.1877 108.238 4 8 329
1944190N13114 1944 33 WP MM NOT_NAMED 1944-07-09 21:00:00 NR 18.5424 108.018 main 73 73 __________P___ -1 18.5424 108.018 4 8 330
1944190N13114 1944 33 WP MM NOT_NAMED 1944-07-10 00:00:00 NR 18.9000 107.800 main 94 __________O___ -1 18.9000 107.800 4 8 330

Digital Typhoon Data and Search

About IBTrACS Database

This database is a web-friendly format of International Best Track Archive for Climate Stewardship (IBTrACS), a global best track data archive curated by NOAA dating back to 1842.

Updated: 2021-10-21